G.bellini — IKGF — position and weather

sailwx.info

Track history (hours):
 
Tides and Currents Weather Stations Pressure Air Temp Water Temp Dewpoint Dewpoint Depression Visibility Wind Speed Wind Dir Waves Ship Positions

G.bellini

Last reported at 2017-Oct-17 05:38 UTC. Time now 2017-Oct-17 06:25 UTC.
Position N 42°56' E 010°34'.

Length 72 m; draft 3.3 m.

Type: Ship. MMSI: 247041900.

Date/timePositionNaut miles runAvg speedWind from/ knotsBaromVisibWave heightAir tempDewpointWater temp
2017-Oct-17 05:38N 42°56' E 010°34'213.4
2017-Oct-17 05:27N 42°54' E 010°33'7 0.5
2017-Oct-16 16:31N 42°49' E 010°26'017.1
2017-Oct-16 16:30N 42°49' E 010°26'815.2
2017-Oct-16 16:00N 42°55' E 010°33'1 1.3
2017-Oct-16 15:29N 42°56' E 010°33'3 5.7
2017-Oct-16 15:01N 42°53' E 010°32'3 3.2
2017-Oct-16 14:01N 42°51' E 010°29'6 7.7
2017-Oct-16 13:16N 42°56' E 010°33'0 1.0
2017-Oct-16 13:00N 42°56' E 010°33'611.9
2017-Oct-16 12:30N 42°52' E 010°27'1 2.4
2017-Oct-16 12:00N 42°52' E 010°25'4 8.1
2017-Oct-16 11:30N 42°54' E 010°30'3 1.1
2017-Oct-16 08:36N 42°56' E 010°33'412.4
2017-Oct-16 08:16N 42°52' E 010°31'4 2.7
2017-Oct-16 06:56N 42°50' E 010°27'715.2
2017-Oct-16 06:30N 42°55' E 010°33'1 0.9
2017-Oct-16 05:33N 42°56' E 010°34'514.7
2017-Oct-16 05:11N 42°52' E 010°29'3 0.3
2017-Oct-15 16:34N 42°49' E 010°26'114.5
2017-Oct-15 16:31N 42°50' E 010°27'815.0
2017-Oct-15 16:00N 42°56' E 010°34'0 0.6
2017-Oct-15 15:19N 42°56' E 010°34'514.8
2017-Oct-15 14:57N 42°52' E 010°29'0 0.2
2017-Oct-15 14:00N 42°51' E 010°29'5 8.9
2017-Oct-15 13:26N 42°56' E 010°33'0 0.9
2017-Oct-15 13:00N 42°56' E 010°33'612.2
2017-Oct-15 12:30N 42°52' E 010°27'1 1.2
2017-Oct-15 11:45N 42°52' E 010°26'414.6
2017-Oct-15 11:28N 42°54' E 010°30'3 1.1
2017-Oct-15 08:35N 42°56' E 010°34'8 5.2
2017-Oct-15 06:59N 42°49' E 010°27'815.2
2017-Oct-15 06:28N 42°56' E 010°34'8 0.6
2017-Oct-14 16:30N 42°49' E 010°26'9 6.9
2017-Oct-14 15:14N 42°56' E 010°34'8 7.3
2017-Oct-14 14:09N 42°50' E 010°27'215.3
2017-Oct-14 14:01N 42°51' E 010°29'3 1.5
2017-Oct-14 12:08N 42°52' E 010°25'0 0.0
2017-Oct-14 11:51N 42°52' E 010°25'713.0
2017-Oct-14 11:18N 42°55' E 010°34'5 1.7
2017-Oct-14 08:10N 42°51' E 010°29'2 1.9
2017-Oct-14 06:58N 42°50' E 010°27'8 5.8
2017-Oct-14 05:36N 42°56' E 010°34'8 0.6
2017-Oct-13 16:29N 42°49' E 010°27'715.2
2017-Oct-13 16:01N 42°55' E 010°33'2 0.9
2017-Oct-13 13:48N 42°54' E 010°31'3 2.2
2017-Oct-13 12:34N 42°53' E 010°28'115.2
2017-Oct-13 12:30N 42°52' E 010°27'1 2.5
2017-Oct-13 12:00N 42°52' E 010°25'5 9.1
2017-Oct-13 11:30N 42°54' E 010°31'6 0.1
2017-Oct-11 16:30N 42°49' E 010°27'2 0.1
2017-Oct-10 16:03N 42°51' E 010°28'115.0
2017-Oct-10 16:00N 42°51' E 010°29'4 1.9
2017-Oct-10 13:44N 42°47' E 010°27'415.2
2017-Oct-10 13:30N 42°44' E 010°27'15 3.0
2017-Oct-10 08:44N 42°37' E 010°09'415.1
2017-Oct-10 08:29N 42°38' E 010°14'15 0.4
2017-Oct-08 14:08N 42°50' E 010°27'414.7
2017-Oct-08 13:51N 42°53' E 010°31'5 0.2
2017-Oct-07 16:31N 42°49' E 010°26'615.1
2017-Oct-07 16:05N 42°54' E 010°32'5 2.6
2017-Oct-07 14:06N 42°50' E 010°28'215.2
2017-Oct-07 13:56N 42°52' E 010°30'5 4.9
2017-Oct-07 12:59N 42°56' E 010°33'511.6
2017-Oct-07 12:30N 42°52' E 010°27'2 3.2
2017-Oct-07 12:00N 42°52' E 010°25'5 8.8
2017-Oct-07 11:30N 42°54' E 010°31'6 1.2
2017-Oct-07 06:59N 42°49' E 010°27'  
Track history (hours):
 
Tides and Currents Weather Stations Pressure Air Temp Water Temp Dewpoint Dewpoint Depression Visibility Wind Speed Wind Dir Waves Ship Positions

G.bellini

Last reported at 2017-Oct-17 05:38 UTC. Time now 2017-Oct-17 06:25 UTC.
Position N 42°56' E 010°34'.

Length 72 m; draft 3.3 m.

Type: Ship. MMSI: 247041900.

Date/timePositionNaut miles runAvg speedWind from/ knotsBaromVisibWave heightAir tempDewpointWater temp
2017-Oct-17 05:38N 42°56' E 010°34'213.4
2017-Oct-17 05:27N 42°54' E 010°33'7 0.5
2017-Oct-16 16:31N 42°49' E 010°26'017.1
2017-Oct-16 16:30N 42°49' E 010°26'815.2
2017-Oct-16 16:00N 42°55' E 010°33'1 1.3
2017-Oct-16 15:29N 42°56' E 010°33'3 5.7
2017-Oct-16 15:01N 42°53' E 010°32'3 3.2
2017-Oct-16 14:01N 42°51' E 010°29'6 7.7
2017-Oct-16 13:16N 42°56' E 010°33'0 1.0
2017-Oct-16 13:00N 42°56' E 010°33'611.9
2017-Oct-16 12:30N 42°52' E 010°27'1 2.4
2017-Oct-16 12:00N 42°52' E 010°25'4 8.1
2017-Oct-16 11:30N 42°54' E 010°30'3 1.1
2017-Oct-16 08:36N 42°56' E 010°33'412.4
2017-Oct-16 08:16N 42°52' E 010°31'4 2.7
2017-Oct-16 06:56N 42°50' E 010°27'715.2
2017-Oct-16 06:30N 42°55' E 010°33'1 0.9
2017-Oct-16 05:33N 42°56' E 010°34'514.7
2017-Oct-16 05:11N 42°52' E 010°29'3 0.3
2017-Oct-15 16:34N 42°49' E 010°26'114.5
2017-Oct-15 16:31N 42°50' E 010°27'815.0
2017-Oct-15 16:00N 42°56' E 010°34'0 0.6
2017-Oct-15 15:19N 42°56' E 010°34'514.8
2017-Oct-15 14:57N 42°52' E 010°29'0 0.2
2017-Oct-15 14:00N 42°51' E 010°29'5 8.9
2017-Oct-15 13:26N 42°56' E 010°33'0 0.9
2017-Oct-15 13:00N 42°56' E 010°33'612.2
2017-Oct-15 12:30N 42°52' E 010°27'1 1.2
2017-Oct-15 11:45N 42°52' E 010°26'414.6
2017-Oct-15 11:28N 42°54' E 010°30'3 1.1
2017-Oct-15 08:35N 42°56' E 010°34'8 5.2
2017-Oct-15 06:59N 42°49' E 010°27'815.2
2017-Oct-15 06:28N 42°56' E 010°34'8 0.6
2017-Oct-14 16:30N 42°49' E 010°26'9 6.9
2017-Oct-14 15:14N 42°56' E 010°34'8 7.3
2017-Oct-14 14:09N 42°50' E 010°27'215.3
2017-Oct-14 14:01N 42°51' E 010°29'3 1.5
2017-Oct-14 12:08N 42°52' E 010°25'0 0.0
2017-Oct-14 11:51N 42°52' E 010°25'713.0
2017-Oct-14 11:18N 42°55' E 010°34'5 1.7
2017-Oct-14 08:10N 42°51' E 010°29'2 1.9
2017-Oct-14 06:58N 42°50' E 010°27'8 5.8
2017-Oct-14 05:36N 42°56' E 010°34'8 0.6
2017-Oct-13 16:29N 42°49' E 010°27'715.2
2017-Oct-13 16:01N 42°55' E 010°33'2 0.9
2017-Oct-13 13:48N 42°54' E 010°31'3 2.2
2017-Oct-13 12:34N 42°53' E 010°28'115.2
2017-Oct-13 12:30N 42°52' E 010°27'1 2.5
2017-Oct-13 12:00N 42°52' E 010°25'5 9.1
2017-Oct-13 11:30N 42°54' E 010°31'6 0.1
2017-Oct-11 16:30N 42°49' E 010°27'2 0.1
2017-Oct-10 16:03N 42°51' E 010°28'115.0
2017-Oct-10 16:00N 42°51' E 010°29'4 1.9
2017-Oct-10 13:44N 42°47' E 010°27'415.2
2017-Oct-10 13:30N 42°44' E 010°27'15 3.0
2017-Oct-10 08:44N 42°37' E 010°09'415.1
2017-Oct-10 08:29N 42°38' E 010°14'15 0.4
2017-Oct-08 14:08N 42°50' E 010°27'414.7
2017-Oct-08 13:51N 42°53' E 010°31'5 0.2
2017-Oct-07 16:31N 42°49' E 010°26'615.1
2017-Oct-07 16:05N 42°54' E 010°32'5 2.6
2017-Oct-07 14:06N 42°50' E 010°28'215.2
2017-Oct-07 13:56N 42°52' E 010°30'5 4.9
2017-Oct-07 12:59N 42°56' E 010°33'511.6
2017-Oct-07 12:30N 42°52' E 010°27'2 3.2
2017-Oct-07 12:00N 42°52' E 010°25'5 8.8
2017-Oct-07 11:30N 42°54' E 010°31'6 1.2
2017-Oct-07 06:59N 42°49' E 010°27'  

Dump ship's entire track history